createdAt,value
2023-01-11T00:04:40.553Z,16.95
2023-01-11T00:09:42.084Z,15.70
2023-01-11T00:14:43.588Z,17.70
2023-01-11T00:19:45.090Z,15.93
2023-01-11T00:24:46.566Z,11.70
2023-01-11T00:29:48.049Z,13.35
2023-01-11T00:34:49.559Z,13.73
2023-01-11T00:39:51.542Z,15.10
2023-01-11T00:45:11.279Z,16.52
2023-01-11T00:50:12.748Z,10.55
2023-01-11T00:55:14.232Z,13.82
2023-01-11T01:00:15.887Z,12.70
2023-01-11T01:05:17.650Z,20.10
2023-01-11T01:10:19.347Z,19.65
2023-01-11T01:15:20.845Z,19.15
2023-01-11T01:20:23.141Z,17.80
2023-01-11T01:25:24.620Z,14.70
2023-01-11T01:30:26.082Z,17.77
2023-01-11T01:35:27.548Z,20.63
2023-01-11T01:40:29.025Z,14.70
2023-01-11T01:45:30.493Z,13.48
2023-01-11T01:50:34.607Z,17.30
2023-01-11T01:55:38.059Z,14.05
2023-01-11T02:00:40.664Z,18.77
2023-01-11T02:05:42.146Z,12.35
2023-01-11T02:10:43.597Z,16.52
2023-01-11T02:15:45.073Z,12.60
2023-01-11T02:21:04.368Z,14.82
2023-01-11T02:26:30.349Z,15.65
2023-01-11T02:31:41.827Z,15.43
2023-01-11T02:37:10.923Z,14.40
2023-01-11T02:42:55.386Z,13.63
2023-01-11T02:48:00.400Z,15.10
2023-01-11T02:53:08.726Z,12.77
2023-01-11T02:58:11.312Z,18.52
2023-01-11T03:03:16.389Z,16.63
2023-01-11T03:08:35.920Z,12.27
2023-01-11T03:13:54.912Z,10.80
2023-01-11T03:19:34.446Z,13.55
2023-01-11T03:25:01.745Z,10.15
2023-01-11T03:30:11.599Z,12.05
2023-01-11T03:35:15.710Z,16.80
2023-01-11T03:40:25.680Z,13.75
2023-01-11T03:45:27.192Z,10.80
2023-01-11T03:50:28.654Z,14.75
2023-01-11T03:55:30.507Z,9.73
2023-01-11T04:00:32.029Z,8.60
2023-01-11T04:05:34.101Z,14.68
2023-01-11T04:10:35.569Z,9.35
2023-01-11T04:15:37.087Z,6.68
2023-01-11T04:20:40.111Z,8.02
2023-01-11T04:25:41.591Z,12.32
2023-01-11T04:30:43.064Z,13.02
2023-01-11T04:35:44.878Z,13.45
2023-01-11T04:40:47.667Z,12.20
2023-01-11T04:45:49.578Z,19.88
2023-01-11T04:50:51.137Z,13.10
2023-01-11T04:55:53.530Z,11.63
2023-01-11T05:00:55.004Z,11.63
2023-01-11T05:06:00.246Z,19.88
2023-01-11T05:11:03.755Z,18.20
2023-01-11T05:16:05.471Z,16.70
2023-01-11T05:21:07.371Z,21.02
2023-01-11T05:26:10.343Z,23.83
2023-01-11T05:31:11.872Z,20.58
2023-01-11T05:36:16.711Z,24.33
2023-01-11T05:41:19.258Z,30.77
2023-01-11T05:46:21.757Z,25.60
2023-01-11T05:51:23.223Z,27.52
2023-01-11T05:56:24.789Z,27.58
2023-01-11T06:01:26.335Z,35.80
2023-01-11T06:06:27.863Z,23.20
2023-01-11T06:11:29.354Z,27.80
2023-01-11T06:16:30.871Z,29.20
2023-01-11T06:21:32.358Z,24.73
2023-01-11T06:26:33.816Z,23.25
2023-01-11T06:31:35.315Z,18.45
2023-01-11T06:36:36.783Z,32.05
2023-01-11T06:41:38.233Z,23.15
2023-01-11T06:46:39.777Z,40.60
2023-01-11T06:51:41.257Z,44.00
2023-01-11T06:56:42.758Z,37.45
2023-01-11T07:01:44.303Z,39.88
2023-01-11T07:06:45.801Z,43.22
2023-01-11T07:11:47.278Z,36.83
2023-01-11T07:16:48.746Z,25.58
2023-01-11T07:21:50.223Z,24.20
2023-01-11T07:26:52.564Z,22.05
2023-01-11T07:31:54.047Z,28.15
2023-01-11T07:36:55.510Z,23.75
2023-01-11T07:42:15.419Z,22.40
2023-01-11T07:47:16.880Z,22.75
2023-01-11T07:52:18.781Z,19.23
2023-01-11T07:57:20.297Z,22.00
2023-01-11T08:02:21.793Z,22.40
2023-01-11T08:07:23.273Z,17.23
2023-01-11T08:12:43.341Z,24.85
2023-01-11T08:17:44.862Z,20.27
2023-01-11T08:22:46.490Z,23.70
2023-01-11T08:27:47.965Z,19.10
2023-01-11T08:32:49.491Z,21.10
2023-01-11T08:37:50.977Z,28.20
2023-01-11T08:42:58.747Z,22.80
2023-01-11T08:48:00.228Z,20.42
2023-01-11T08:53:01.727Z,19.77
2023-01-11T08:58:03.200Z,25.48
2023-01-11T09:03:04.702Z,24.10
2023-01-11T09:08:06.453Z,19.13
2023-01-11T09:13:07.906Z,23.80
2023-01-11T09:18:09.432Z,19.73
2023-01-11T09:23:10.964Z,23.45
2023-01-11T09:28:12.421Z,16.20
2023-01-11T09:33:13.897Z,22.77
2023-01-11T09:38:15.388Z,16.27
2023-01-11T09:43:16.859Z,22.70
2023-01-11T09:48:28.748Z,21.75
2023-01-11T09:53:34.921Z,25.05
2023-01-11T09:58:50.964Z,20.20
2023-01-11T10:04:33.320Z,21.40
2023-01-11T10:18:32.895Z,27.85
2023-01-11T10:20:40.895Z,21.38
2023-01-11T10:25:50.184Z,24.05
2023-01-11T10:30:57.243Z,17.45
2023-01-11T10:36:28.656Z,22.52
2023-01-11T10:41:52.213Z,20.25
2023-01-11T10:46:53.766Z,23.67
2023-01-11T10:51:57.635Z,18.80
2023-01-11T10:57:26.757Z,16.35
2023-01-11T11:02:46.623Z,22.33
2023-01-11T11:08:06.397Z,25.00
2023-01-11T11:13:23.799Z,22.80
2023-01-11T11:18:25.320Z,23.17
2023-01-11T11:23:28.593Z,23.45
2023-01-11T11:28:31.377Z,27.83
2023-01-11T11:33:39.883Z,16.95
2023-01-11T11:38:42.442Z,26.33
2023-01-11T11:43:45.010Z,24.73
2023-01-11T11:49:13.091Z,29.92
2023-01-11T11:54:34.120Z,23.92
2023-01-11T11:59:35.589Z,20.38
2023-01-11T12:04:49.000Z,26.02
2023-01-11T12:09:57.203Z,22.77
2023-01-11T12:15:15.114Z,27.75
2023-01-11T12:20:19.216Z,17.13
2023-01-11T12:25:25.233Z,24.23
2023-01-11T12:30:44.882Z,21.75
2023-01-11T12:35:56.247Z,24.40
2023-01-11T12:41:09.934Z,14.63
2023-01-11T12:46:39.501Z,23.15
2023-01-11T12:52:06.947Z,24.67
2023-01-11T12:57:18.945Z,19.83
2023-01-11T13:02:28.626Z,20.00
2023-01-11T13:07:45.462Z,21.23
2023-01-11T13:12:54.331Z,19.60
2023-01-11T13:18:18.593Z,19.15
2023-01-11T13:23:34.347Z,20.05
2023-01-11T13:28:38.794Z,22.55
2023-01-11T13:33:42.633Z,17.20
2023-01-11T13:39:10.216Z,21.05
2023-01-11T13:44:20.939Z,26.98
2023-01-11T13:49:41.269Z,20.15
2023-01-11T13:55:27.627Z,20.58
2023-01-11T14:00:42.066Z,20.00
2023-01-11T14:06:18.739Z,24.05
2023-01-11T14:11:44.701Z,20.13
2023-01-11T14:17:04.047Z,22.73
2023-01-11T14:22:43.100Z,22.70
2023-01-11T14:28:07.923Z,25.23
2023-01-11T14:33:34.110Z,22.77
2023-01-11T14:39:01.769Z,24.02
2023-01-11T14:44:20.597Z,19.65
2023-01-11T14:49:33.399Z,21.88
2023-01-11T14:54:39.419Z,29.80
2023-01-11T14:59:40.954Z,22.70
2023-01-11T15:04:57.290Z,27.77
2023-01-11T15:10:04.168Z,26.77
2023-01-11T15:15:07.106Z,23.27
2023-01-11T15:20:12.904Z,17.60
2023-01-11T15:25:24.903Z,25.38
2023-01-11T15:30:29.253Z,30.05
2023-01-11T15:35:32.493Z,25.05
2023-01-11T15:40:36.809Z,26.42
2023-01-11T15:46:31.005Z,28.70
2023-01-11T15:51:58.140Z,21.48
2023-01-11T15:57:11.705Z,25.25
2023-01-11T16:02:13.036Z,22.42
2023-01-11T16:07:26.510Z,30.08
2023-01-11T16:12:52.578Z,28.50
2023-01-11T16:17:54.086Z,33.08
2023-01-11T16:23:00.097Z,28.35
2023-01-11T16:28:01.633Z,19.13
2023-01-11T16:33:26.308Z,25.75
2023-01-11T16:38:27.763Z,35.03
2023-01-11T16:43:29.796Z,32.42
2023-01-11T16:48:31.284Z,21.40
2023-01-11T16:53:33.666Z,21.15
2023-01-11T16:58:37.917Z,26.52
2023-01-11T17:03:53.062Z,34.13
2023-01-11T17:08:56.398Z,24.52
2023-01-11T17:14:09.101Z,32.28
2023-01-11T17:19:20.329Z,25.67
2023-01-11T17:24:26.899Z,22.75
2023-01-11T17:29:40.218Z,20.92
2023-01-11T17:34:41.719Z,21.63
2023-01-11T17:39:50.466Z,20.13
2023-01-11T17:45:11.806Z,25.48
2023-01-11T17:50:28.425Z,22.67
2023-01-11T17:55:29.989Z,26.15
2023-01-11T18:00:31.497Z,30.45
2023-01-11T18:05:32.993Z,23.63
2023-01-11T18:10:36.214Z,27.45
2023-01-11T18:15:37.774Z,25.10
2023-01-11T18:20:39.364Z,21.42
2023-01-11T18:25:41.422Z,21.73
2023-01-11T18:30:47.257Z,27.73
2023-01-11T18:35:50.374Z,17.98
2023-01-11T18:45:53.407Z,22.95
2023-01-11T18:50:55.439Z,23.33
2023-01-11T18:55:56.901Z,22.58
2023-01-11T19:01:00.142Z,20.05
2023-01-11T19:06:01.634Z,25.15
2023-01-11T19:11:03.976Z,25.63
2023-01-11T19:16:06.010Z,31.42
2023-01-11T19:21:09.162Z,23.45
2023-01-11T19:26:10.671Z,25.17
2023-01-11T19:31:12.411Z,26.85
2023-01-11T19:36:13.910Z,22.50
2023-01-11T19:41:16.706Z,18.88
2023-01-11T19:46:30.606Z,23.58
2023-01-11T19:51:33.258Z,13.55
2023-01-11T19:56:34.755Z,20.35
2023-01-11T20:01:36.427Z,23.63
2023-01-11T20:06:49.914Z,26.75
2023-01-11T20:11:53.147Z,15.48
2023-01-11T20:16:54.668Z,19.63
2023-01-11T20:21:56.467Z,22.50
2023-01-11T20:27:00.578Z,22.92
2023-01-11T20:32:21.198Z,26.63
2023-01-11T20:37:23.584Z,30.67
2023-01-11T20:42:25.071Z,22.70
2023-01-11T20:47:26.531Z,16.10
2023-01-11T20:52:28.015Z,21.67
2023-01-11T20:57:29.499Z,27.60
2023-01-11T21:02:31.040Z,24.23
2023-01-11T21:07:32.522Z,21.77
2023-01-11T21:12:33.988Z,28.50
2023-01-11T21:17:35.454Z,26.02
2023-01-11T21:22:36.907Z,22.95
2023-01-11T21:27:38.949Z,26.67
2023-01-11T21:32:40.441Z,22.80
2023-01-11T21:37:41.913Z,32.53
2023-01-11T21:42:43.376Z,19.63
2023-01-11T21:47:44.852Z,23.38
2023-01-11T21:52:46.319Z,18.70
2023-01-11T21:57:47.804Z,24.08
2023-01-11T22:02:49.999Z,16.42
2023-01-11T22:07:51.472Z,20.00
2023-01-11T22:12:53.128Z,19.35
2023-01-11T22:17:54.622Z,16.13
2023-01-11T22:22:56.098Z,21.30
2023-01-11T22:27:57.577Z,26.67
2023-01-11T22:32:59.566Z,24.05
2023-01-11T22:38:01.114Z,28.15
2023-01-11T22:43:02.583Z,23.33
2023-01-11T22:48:04.234Z,30.98
2023-01-11T22:53:05.690Z,22.13
2023-01-11T22:58:07.154Z,21.27
2023-01-11T23:03:08.791Z,16.60
2023-01-11T23:08:10.386Z,18.20
2023-01-11T23:13:30.135Z,14.13
2023-01-11T23:18:31.606Z,24.15
2023-01-11T23:23:33.078Z,25.08
2023-01-11T23:28:34.738Z,27.38
2023-01-11T23:33:37.558Z,24.63
2023-01-11T23:38:39.097Z,26.70
2023-01-11T23:43:40.585Z,24.52
2023-01-11T23:48:42.043Z,29.73
2023-01-11T23:53:43.567Z,21.73
2023-01-11T23:58:45.055Z,24.30
